• Join FlightAware (Why Join?)
  • Login
  • US Flag 
12:20PM EDT


 

Airport Tracker/Info


-or-


 

Live Flight TrackerFlight Track Log ✈ THY2451 ✈ 04-May-2013 ✈ LTAF / ADA - LTBA / IST

Flight Track Log - Related Links

Times and Time Zones

All times are in EDT time to prevent confusion due to time zone crossing. See the THY2451 flight status page for this flight to view local times or setup timezone preferences in your user account.

Time Position Orientation Groundspeed Altitude Reporting Facility
EDT Latitude Longitude Course Direction KTS MPH feet Rate Location/Type
08:43PM 37.5745 34.4006 311° West  Level Estimated
08:44PM 37.6334 34.3119 310° West  Level Estimated
08:45PM 37.6922 34.2230 310° West  Level Estimated
08:46PM 37.7510 34.1340 310° West  Level Estimated
08:47PM 37.8096 34.0448 310° West  Level Estimated
08:48PM 37.8683 33.9555 310° West  Level Estimated
08:49PM 37.9268 33.8660 310° West  Level Estimated
08:50PM 37.9853 33.7764 310° West  Level Estimated
08:51PM 38.0437 33.6867 310° West  Level Estimated
08:52PM 38.1020 33.5968 310° West  Level Estimated
08:53PM 38.1603 33.5068 309° West  Level Estimated
08:54PM 38.2185 33.4166 309° West  Level Estimated
08:55PM 38.2766 33.3263 309° West  Level Estimated
08:56PM 38.3347 33.2359 309° West  Level Estimated
08:57PM 38.3927 33.1453 309° West  Level Estimated
08:58PM 38.4506 33.0545 309° West  Level Estimated
08:59PM 38.5084 32.9636 309° West  Level Estimated
09:00PM 38.5662 32.8726 309° West  Level Estimated
09:01PM 38.6239 32.7814 309° West  Level Estimated
09:02PM 38.6815 32.6901 309° West  Level Estimated
09:03PM 38.7391 32.5986 309° West  Level Estimated
09:04PM 38.7966 32.5070 309° West  Level Estimated
09:05PM 38.8540 32.4152 309° West  Level Estimated
09:06PM 38.9114 32.3233 309° West  Level Estimated
09:07PM 38.9687 32.2312 309° West  Level Estimated
09:08PM 39.0259 32.1390 309° West  Level Estimated
09:09PM 39.0830 32.0466 309° West  Level Estimated
09:10PM 39.1401 31.9541 309° West  Level Estimated
09:11PM 39.1971 31.8614 308° West  Level Estimated
09:12PM 39.2540 31.7686 308° West  Level Estimated
09:13PM 39.3108 31.6756 308° West  Level Estimated
09:14PM 39.3676 31.5825 308° West  Level Estimated
09:15PM 39.4243 31.4893 308° West  Level Estimated
09:16PM 39.4809 31.3958 308° West  Level Estimated
09:17PM 39.5375 31.3022 308° West  Level Estimated
09:18PM 39.5939 31.2085 308° West  Level Estimated
09:19PM 39.6503 31.1146 308° West  Level Estimated
09:20PM 39.7066 31.0206 308° West  Level Estimated
09:21PM 39.7629 30.9264 308° West  Level Estimated
09:22PM 39.8190 30.8321 308° West  Level Estimated
09:23PM 39.8751 30.7376 308° West  Level Estimated
09:24PM 39.9311 30.6429 308° West  Level Estimated
09:25PM 39.9871 30.5481 308° West  Level Estimated
09:26PM 40.0429 30.4532 308° West  Level Estimated
09:27PM 40.0987 30.3580 307° West  Level Estimated
09:28PM 40.1544 30.2628 307° West  Level Estimated
09:29PM 40.2100 30.1674 307° West  Level Estimated
09:30PM 40.2656 30.0718 307° West  Level Estimated
09:31PM 40.3211 29.9760 307° West  Level Estimated
09:32PM 40.3765 29.8801 307° West  Level Estimated
09:33PM 40.4318 29.7841 307° West  Level Estimated
09:34PM 40.4870 29.6879 307° West  Level Estimated
09:35PM 40.5421 29.5915 307° West  Level Estimated
09:36PM 40.5972 29.4950 307° West  Level Estimated
09:37PM 40.6522 29.3983 307° West  Level Estimated
09:38PM 40.7071 29.3014 307° West  Level Estimated
09:39PM 40.7620 29.2044 307° West  Level Estimated
09:40PM 40.8167 29.1072 307° West  Level Estimated
09:41PM 40.8713 29.0099 307° West  Level Estimated
09:42PM 40.9259 28.9124 307° West  Level Estimated
09:43PM 40.9769 28.8211 306° West  Level Estimated
09:44PM 40.9769 28.8211 21° North  Level Estimated
09:45PM 40.9769 28.8211 21° North  Level Estimated
09:46PM 40.9769 28.8211 21° North  Level Estimated
09:47PM 40.9769 28.8211 21° North  Level Estimated
09:48PM 40.9769 28.8211 21° North  Level Estimated
09:49PM 40.9769 28.8211 21° North  Level Estimated
09:50PM 40.9769 28.8211 21° North  Level Estimated
09:51PM 40.9769 28.8211 21° North  Level Estimated
09:52PM 40.9769 28.8211 21° North  Level Estimated
09:53PM 40.9769 28.8211 21° North  Level Estimated
09:54PM 40.9769 28.8211 21° North  Level Estimated
09:55PM 40.9769 28.8211 21° North  Level Estimated